Mountain Park, Oregon
Current Conditions -  °F | °C
As of 3:53 AM on Monday 26 Jan 2015 (Local Time) from KUAO Reporting Station
Moderate Fog Moderate Fog  
Wind Chill: 39°   Ceiling: 200
Heat Index: 43°   Visibility: 0.5mi
Dew Point: 43°   Wind: 7mph
Humidity: 100%   Direction: 110°ESE
Pressure: 30.01"   Gusts: NA
Location:  45.413°N, 122.725°W
Report Text: KUAO 261153Z AUTO 11006KT 1/2SM FG VV002 06/06 A3001 RMK AO2 SLP163 T00610061 10067 20056 53001 $
Loading
Personal Weather Stations






























Interactive Weather Map New forecast layout! Learn more

10-Day Weather Forecast

Advertisements
Track Severe Weather on mobile